Time;durP1;ratioP1;P1;durP2;ratioP2;P2;SDS_P1;SDS_P2;PMS_P1;PMS_P2;Temp;Humidity;BMP_temperature;BMP_pressure;BME280_temperature;BME280_humidity;BME280_pressure;Samples;Min_cycle;Max_cycle;Signal;HPM_P1;HPM_P2
2022/12/06 00:00:10;;;;;;;36.50;22.50;;;;;;;2.65;80.49;100794.73;102838;1329;37246;-74
2022/12/06 00:03:02;;;;;;;;;;;;;;;2.67;80.64;100795.61;102856;1330;37913;-74
2022/12/06 00:05:36;;;;;;;31.50;20.60;;;;;;;2.62;80.69;100793.20;102837;1329;37178;-73
2022/12/06 00:08:10;;;;;;;31.30;21.50;;;;;;;2.63;80.79;100793.54;102839;1328;37661;-72
2022/12/06 00:10:44;;;;;;;33.40;22.40;;;;;;;2.66;80.93;100797.34;102862;1333;37243;-73
2022/12/06 00:13:18;;;;;;;33.60;22.50;;;;;;;2.69;81.24;100791.47;102857;1329;37489;-72
2022/12/06 00:15:52;;;;;;;31.10;21.30;;;;;;;2.69;81.20;100787.35;102844;1329;37258;-73
2022/12/06 00:18:26;;;;;;;31.80;21.30;;;;;;;2.68;81.19;100784.58;102853;1333;36146;-73
2022/12/06 00:21:06;;;;;;;32.30;20.30;;;;;;;2.69;81.21;100785.79;102826;1329;37224;-74
2022/12/06 00:23:41;;;;;;;32.80;22.30;;;;;;;2.69;81.24;100784.23;102743;1330;174975;-73
2022/12/06 00:26:15;;;;;;;34.40;23.10;;;;;;;2.70;81.55;100784.06;102865;1329;38096;-70
2022/12/06 00:28:49;;;;;;;32.60;21.20;;;;;;;2.68;81.51;100778.04;102786;1330;39202;-72
2022/12/06 00:31:27;;;;;;;32.40;21.10;;;;;;;2.68;81.67;100778.90;102828;1333;37501;-74
2022/12/06 00:34:00;;;;;;;29.80;20.00;;;;;;;2.69;81.48;100772.52;102860;1329;36161;-73
2022/12/06 00:36:36;;;;;;;30.30;22.20;;;;;;;2.72;81.62;100769.42;102839;1330;37244;-74
2022/12/06 00:39:12;;;;;;;34.60;22.80;;;;;;;2.75;81.78;100771.50;102793;1333;36179;-74
2022/12/06 00:41:46;;;;;;;33.10;22.10;;;;;;;2.74;81.73;100772.18;102852;1329;37141;-73
2022/12/06 00:44:20;;;;;;;29.00;19.80;;;;;;;2.74;81.72;100774.93;102797;1333;37148;-73
2022/12/06 00:46:54;;;;;;;32.40;20.60;;;;;;;2.74;81.83;100775.11;102841;1332;36845;-74
2022/12/06 00:49:28;;;;;;;33.00;21.60;;;;;;;2.72;81.88;100773.39;102820;1330;37222;-73
2022/12/06 00:52:02;;;;;;;35.00;22.20;;;;;;;2.72;81.93;100765.13;102823;1333;37423;-75
2022/12/06 00:54:35;;;;;;;34.50;22.60;;;;;;;2.71;82.01;100759.95;102825;1333;36179;-75
2022/12/06 00:57:10;;;;;;;31.60;21.80;;;;;;;2.69;81.95;100757.19;102830;1329;38610;-74
2022/12/06 00:59:44;;;;;;;31.20;21.90;;;;;;;2.66;82.01;100758.23;102854;1329;37284;-74
2022/12/06 01:02:18;;;;;;;31.00;21.50;;;;;;;2.62;82.50;100754.79;102865;1330;37948;-70
2022/12/06 01:04:52;;;;;;;33.10;21.10;;;;;;;2.63;82.49;100749.96;102845;1329;37144;-70
2022/12/06 01:07:26;;;;;;;33.20;22.60;;;;;;;2.65;82.50;100747.73;102838;1329;37283;-74
2022/12/06 01:10:00;;;;;;;32.20;22.30;;;;;;;2.65;82.63;100748.06;102797;1329;38506;-73
2022/12/06 01:12:34;;;;;;;34.80;22.40;;;;;;;2.65;82.68;100743.93;102773;1333;174902;-73
2022/12/06 01:15:10;;;;;;;29.90;21.50;;;;;;;2.64;82.56;100739.27;102792;1329;38212;-72
2022/12/06 01:17:44;;;;;;;31.30;20.80;;;;;;;2.65;82.67;100736.69;102849;1331;36879;-73
2022/12/06 01:20:21;;;;;;;31.50;20.40;;;;;;;2.60;82.82;100732.91;102828;1333;37219;-73
2022/12/06 01:22:55;;;;;;;35.10;24.00;;;;;;;2.61;82.98;100732.57;102835;1332;38480;-74
2022/12/06 01:25:31;;;;;;;35.40;24.20;;;;;;;2.66;83.03;100724.30;102834;1332;37506;-72
2022/12/06 01:28:05;;;;;;;31.10;22.40;;;;;;;2.69;83.22;100717.74;102813;1329;38419;-70
2022/12/06 01:30:42;;;;;;;35.90;23.00;;;;;;;2.69;83.05;100715.34;102878;1329;37703;-74
2022/12/06 01:33:17;;;;;;;34.70;21.60;;;;;;;2.70;83.13;100709.46;102796;1333;37315;-74
2022/12/06 01:35:51;;;;;;;28.10;20.80;;;;;;;2.72;83.00;100709.83;102847;1331;36251;-73
2022/12/06 01:38:25;;;;;;;31.70;22.20;;;;;;;2.71;82.93;100713.95;102826;1333;37433;-73
2022/12/06 01:41:00;;;;;;;34.30;23.50;;;;;;;2.70;83.12;100711.20;102877;1330;36510;-73
2022/12/06 01:43:40;;;;;;;36.50;23.20;;;;;;;2.71;83.02;100714.12;102851;1329;37238;-72
2022/12/06 01:46:25;;;;;;;34.30;22.90;;;;;;;2.70;83.10;100712.92;102788;1330;37203;-73
2022/12/06 01:49:07;;;;;;;32.90;21.60;;;;;;;2.68;83.23;100708.80;102808;1329;36283;-71
2022/12/06 01:51:42;;;;;;;34.70;23.40;;;;;;;2.67;83.17;100704.84;102836;1329;37432;-73
2022/12/06 01:54:17;;;;;;;31.40;21.40;;;;;;;2.68;83.35;100704.31;102848;1329;37313;-72
2022/12/06 01:56:50;;;;;;;36.10;23.40;;;;;;;2.70;83.34;100700.52;102849;1333;37319;-73
2022/12/06 01:59:24;;;;;;;36.40;23.70;;;;;;;2.74;83.25;100697.41;102858;1332;37478;-73
2022/12/06 02:01:58;;;;;;;35.20;23.40;;;;;;;2.75;83.28;100695.35;102850;1333;37159;-73
2022/12/06 02:04:32;;;;;;;33.80;22.70;;;;;;;2.74;83.02;100695.54;102840;1331;36428;-74
2022/12/06 02:07:06;;;;;;;36.90;23.00;;;;;;;2.72;82.99;100698.11;102875;1333;36263;-72
2022/12/06 02:09:40;;;;;;;31.20;21.60;;;;;;;2.67;83.05;100690.36;102835;1330;36236;-70
2022/12/06 02:12:16;;;;;;;35.80;24.10;;;;;;;2.68;83.35;100686.41;102833;1330;37267;-72
2022/12/06 02:14:52;;;;;;;40.20;24.00;;;;;;;2.72;83.33;100684.50;102831;1332;38369;-73
2022/12/06 02:17:37;;;;;;;41.20;24.50;;;;;;;2.69;83.08;100682.95;102864;1330;37265;-74
2022/12/06 02:20:28;;;;;;;36.00;22.60;;;;;;;2.65;83.34;100684.85;102643;1329;292518;-74
2022/12/06 02:23:43;;;;;;;33.60;22.80;;;;;;;2.64;83.32;100679.16;102886;1329;37383;-71
2022/12/06 02:26:32;;;;;;;35.10;21.80;;;;;;;2.63;83.36;100678.48;102800;1329;38486;-71
2022/12/06 02:29:51;;;;;;;38.50;23.60;;;;;;;2.66;83.46;100671.25;102841;1331;36275;-72
2022/12/06 02:32:28;;;;;;;39.50;25.30;;;;;;;2.67;83.48;100671.07;102845;1329;37228;-70
2022/12/06 02:35:11;;;;;;;34.80;23.10;;;;;;;2.63;83.35;100672.98;102844;1329;37801;-73
2022/12/06 02:37:47;;;;;;;35.30;22.70;;;;;;;2.61;83.34;100670.73;102856;1329;37231;-70
2022/12/06 02:40:23;;;;;;;33.50;22.30;;;;;;;2.59;83.50;100664.52;102871;1333;37100;-71
2022/12/06 02:43:00;;;;;;;35.50;22.90;;;;;;;2.62;83.63;100662.13;102834;1333;38573;-72
2022/12/06 02:45:38;;;;;;;34.80;23.30;;;;;;;2.65;83.75;100657.11;102884;1333;37238;-72
2022/12/06 02:48:12;;;;;;;35.40;24.40;;;;;;;2.68;83.59;100653.33;102855;1333;37241;-72
2022/12/06 02:50:48;;;;;;;40.90;24.70;;;;;;;2.68;83.54;100645.41;102864;1333;37117;-73
2022/12/06 02:53:23;;;;;;;35.80;24.60;;;;;;;2.65;83.39;100643.69;102831;1329;37324;-73
2022/12/06 02:55:56;;;;;;;35.80;22.30;;;;;;;2.60;83.34;100636.80;102872;1333;37250;-74
2022/12/06 02:58:33;;;;;;;36.90;23.00;;;;;;;2.60;83.60;100631.11;102849;1332;37207;-74
2022/12/06 03:01:09;;;;;;;35.60;22.60;;;;;;;2.63;83.79;100629.23;102831;1331;36909;-74
2022/12/06 03:04:02;;;;;;;34.40;22.40;;;;;;;2.65;83.90;100626.80;102821;1332;37189;-73
2022/12/06 03:07:01;;;;;;;34.40;22.40;;;;;;;2.68;83.73;100627.31;102844;1333;36249;-74
2022/12/06 03:09:49;;;;;;;36.50;24.30;;;;;;;2.73;83.92;100625.06;102834;1331;37225;-73
2022/12/06 03:12:32;;;;;;;38.30;25.10;;;;;;;2.76;83.65;100623.00;102941;1330;37199;-73
2022/12/06 03:15:13;;;;;;;38.30;24.50;;;;;;;2.77;83.70;100619.20;102852;1331;37121;-70
2022/12/06 03:17:50;;;;;;;38.70;24.90;;;;;;;2.74;83.42;100618.70;102867;1329;36184;-72
2022/12/06 03:20:27;;;;;;;37.40;23.60;;;;;;;2.68;83.49;100619.23;102860;1329;37129;-73
2022/12/06 03:23:04;;;;;;;37.20;23.30;;;;;;;2.70;83.91;100621.63;102821;1329;37229;-73
2022/12/06 03:25:38;;;;;;;34.10;22.50;;;;;;;2.74;83.79;100618.34;102865;1333;36440;-74
2022/12/06 03:28:13;;;;;;;39.80;23.50;;;;;;;2.74;83.70;100619.73;102753;1329;172782;-74
2022/12/06 03:30:49;;;;;;;39.30;25.60;;;;;;;2.72;83.80;100615.94;102861;1329;36259;-72
2022/12/06 03:33:25;;;;;;;39.90;24.90;;;;;;;2.72;83.71;100610.26;102819;1329;37160;-71
2022/12/06 03:35:59;;;;;;;39.40;25.20;;;;;;;2.70;83.76;100613.18;102879;1330;37276;-72
2022/12/06 03:38:34;;;;;;;37.90;24.30;;;;;;;2.70;83.74;100610.77;102826;1329;37299;-72
2022/12/06 03:41:08;;;;;;;35.80;23.60;;;;;;;2.68;83.83;100606.81;102876;1333;38697;-72
2022/12/06 03:43:42;;;;;;;36.50;23.40;;;;;;;2.67;83.89;100608.73;102842;1329;36482;-70
2022/12/06 03:46:18;;;;;;;38.60;24.60;;;;;;;2.66;83.87;100612.52;102825;1332;38761;-72
2022/12/06 03:48:54;;;;;;;35.90;22.90;;;;;;;2.68;83.88;100613.37;102843;1333;36130;-72
2022/12/06 03:51:29;;;;;;;31.50;22.30;;;;;;;2.71;83.95;100610.77;102869;1333;37763;-72
2022/12/06 03:54:05;;;;;;;38.50;23.60;;;;;;;2.75;84.00;100608.34;102851;1329;36567;-73
2022/12/06 03:56:39;;;;;;;39.60;24.70;;;;;;;2.80;84.26;100604.22;102874;1333;36588;-74
2022/12/06 03:59:14;;;;;;;41.80;24.10;;;;;;;2.84;83.87;100597.98;102830;1329;37337;-74
2022/12/06 04:01:48;;;;;;;39.70;24.30;;;;;;;2.85;83.99;100596.95;102812;1329;37294;-70
2022/12/06 04:04:23;;;;;;;36.50;23.20;;;;;;;2.86;83.79;100593.86;102798;1333;37528;-73
2022/12/06 04:06:57;;;;;;;36.80;23.30;;;;;;;2.84;83.62;100590.94;102840;1331;37258;-73
2022/12/06 04:15:14;;;;;;;41.40;24.60;;;;;;;2.87;83.82;100584.21;102817;1333;37095;-73
2022/12/06 04:23:39;;;;;;;39.40;24.20;;;;;;;2.82;83.98;100578.88;102863;1330;37274;-71
2022/12/06 04:26:16;;;;;;;37.60;22.70;;;;;;;2.81;83.92;100577.16;102763;1333;174903;-72
2022/12/06 04:40:34;;;;;;;37.70;24.10;;;;;;;2.84;84.30;100571.63;102847;1329;37136;-73
2022/12/06 04:46:03;;;;;;;34.30;22.00;;;;;;;2.77;84.14;100571.66;102569;1336;37153;-72
2022/12/06 04:48:37;;;;;;;35.00;22.50;;;;;;;2.73;84.01;100568.05;102553;1336;37232;-71
2022/12/06 04:51:12;;;;;;;32.70;22.10;;;;;;;2.68;84.19;100567.55;102558;1336;36558;-74
2022/12/06 04:53:46;;;;;;;34.10;20.50;;;;;;;2.70;84.36;100563.92;102396;1337;174925;-73
2022/12/06 04:56:20;;;;;;;34.30;21.90;;;;;;;2.72;84.40;100564.95;102537;1334;37411;-73
2022/12/06 04:58:53;;;;;;;33.70;22.30;;;;;;;2.77;84.51;100559.61;102525;1333;36308;-72
2022/12/06 05:01:27;;;;;;;34.70;22.30;;;;;;;2.75;84.47;100561.49;102582;1332;37167;-72
2022/12/06 05:04:01;;;;;;;33.70;22.50;;;;;;;2.78;84.81;100560.80;102534;1333;37090;-72
2022/12/06 05:06:35;;;;;;;36.50;22.10;;;;;;;2.80;84.67;100559.77;102574;1332;37124;-74
2022/12/06 05:09:09;;;;;;;35.10;21.60;;;;;;;2.79;84.66;100552.88;102541;1332;37289;-74
2022/12/06 05:11:43;;;;;;;33.50;21.20;;;;;;;2.77;84.90;100553.58;102558;1336;37164;-73
2022/12/06 05:14:17;;;;;;;33.70;21.50;;;;;;;2.77;84.84;100545.83;102535;1334;37762;-72
2022/12/06 05:16:51;;;;;;;34.80;22.70;;;;;;;2.77;84.69;100545.48;102455;1336;36254;-71
2022/12/06 05:19:26;;;;;;;34.30;22.20;;;;;;;2.74;84.78;100541.18;102546;1332;38348;-70
2022/12/06 05:22:00;;;;;;;35.40;22.50;;;;;;;2.74;84.81;100539.45;102552;1336;37282;-72
2022/12/06 05:24:34;;;;;;;33.00;21.20;;;;;;;2.77;84.84;100536.17;102547;1336;36385;-73
2022/12/06 05:27:08;;;;;;;32.60;20.50;;;;;;;2.80;84.89;100530.48;102568;1334;36900;-74
2022/12/06 05:29:42;;;;;;;35.80;22.40;;;;;;;2.83;84.76;100529.77;102575;1334;37217;-71
2022/12/06 05:32:16;;;;;;;36.00;23.70;;;;;;;2.84;84.71;100525.29;102539;1334;38362;-72
2022/12/06 05:34:49;;;;;;;37.00;23.70;;;;;;;2.81;84.87;100518.23;102527;1333;36572;-74
2022/12/06 05:37:23;;;;;;;35.90;22.30;;;;;;;2.83;85.13;100513.58;102537;1332;37443;-74
2022/12/06 05:39:58;;;;;;;39.00;22.70;;;;;;;2.81;84.68;100512.55;102556;1336;37246;-71
2022/12/06 05:42:31;;;;;;;34.80;20.90;;;;;;;2.78;84.94;100515.15;102544;1336;37351;-72
2022/12/06 05:45:06;;;;;;;32.40;21.70;;;;;;;2.75;84.80;100514.81;102537;1333;36645;-72
2022/12/06 05:47:40;;;;;;;34.00;22.30;;;;;;;2.77;85.10;100510.50;102557;1333;37154;-74
2022/12/06 05:50:16;;;;;;;35.10;22.10;;;;;;;2.81;85.26;100508.59;102557;1336;37528;-73
2022/12/06 05:52:51;;;;;;;37.30;22.00;;;;;;;2.83;85.29;100510.64;102550;1336;37572;-71
2022/12/06 05:55:25;;;;;;;32.90;20.10;;;;;;;2.78;85.07;100507.05;102559;1336;37240;-73
2022/12/06 05:58:00;;;;;;;34.40;20.00;;;;;;;2.77;85.02;100501.90;102556;1336;37508;-73
2022/12/06 06:00:35;;;;;;;31.30;19.40;;;;;;;2.79;84.96;100504.64;102563;1332;37387;-73
2022/12/06 06:03:09;;;;;;;33.70;19.80;;;;;;;2.82;85.14;100505.33;102540;1336;37722;-72
2022/12/06 06:05:51;;;;;;;31.20;20.20;;;;;;;2.79;84.93;100498.95;100288;1339;3013103;-74
2022/12/06 06:08:25;;;;;;;37.30;21.60;;;;;;;2.80;84.98;100496.89;102549;1333;36138;-73
2022/12/06 06:10:59;;;;;;;40.50;22.40;;;;;;;2.78;85.07;100491.02;102559;1332;37385;-74
2022/12/06 06:13:33;;;;;;;31.50;20.40;;;;;;;2.76;85.18;100494.48;102531;1336;36260;-74
2022/12/06 06:16:08;;;;;;;32.60;19.70;;;;;;;2.77;85.22;100497.58;102567;1321;38409;-72
2022/12/06 06:18:55;;;;;;;28.40;19.10;;;;;;;2.81;85.10;100500.33;102473;1336;37166;-73
2022/12/06 06:21:36;;;;;;;31.40;19.80;;;;;;;2.88;85.09;100508.73;102442;1339;37746;-72
2022/12/06 06:24:11;;;;;;;31.30;20.20;;;;;;;2.91;85.08;100512.86;102364;1339;36393;-71
2022/12/06 06:26:44;;;;;;;30.20;20.30;;;;;;;2.92;84.99;100517.33;102565;1333;37116;-72
2022/12/06 06:29:18;;;;;;;33.10;20.50;;;;;;;2.93;85.19;100516.98;102526;1334;37153;-73
2022/12/06 06:31:53;;;;;;;30.50;19.70;;;;;;;2.93;84.86;100514.56;102477;1334;37282;-74
2022/12/06 06:34:27;;;;;;;31.00;19.40;;;;;;;2.95;84.83;100512.32;102545;1333;38548;-72
2022/12/06 06:37:00;;;;;;;28.80;19.00;;;;;;;2.96;85.01;100511.46;102528;1333;37941;-72
2022/12/06 06:39:34;;;;;;;34.20;20.50;;;;;;;2.98;85.07;100511.27;102533;1332;37269;-72
2022/12/06 06:42:11;;;;;;;34.50;20.90;;;;;;;3.03;85.07;100511.23;102577;1336;37268;-72
2022/12/06 06:44:45;;;;;;;30.60;19.00;;;;;;;3.03;84.93;100511.41;102542;1333;37243;-75
2022/12/06 06:47:19;;;;;;;30.00;19.00;;;;;;;3.03;84.87;100509.00;102554;1336;36263;-72
2022/12/06 06:49:53;;;;;;;27.50;18.90;;;;;;;3.00;84.46;100506.27;102535;1336;37205;-73
2022/12/06 06:52:28;;;;;;;27.30;17.60;;;;;;;3.01;84.94;100502.48;102541;1333;38636;-73
2022/12/06 06:55:02;;;;;;;26.00;18.60;;;;;;;3.05;84.89;100498.83;102479;1334;37228;-75
2022/12/06 06:57:36;;;;;;;29.00;19.60;;;;;;;3.07;84.96;100494.16;102399;1337;38456;-74
2022/12/06 07:00:15;;;;;;;31.60;21.60;;;;;;;3.11;84.96;100493.98;102537;1332;37272;-75
2022/12/06 07:02:49;;;;;;;31.50;20.70;;;;;;;3.12;84.64;100496.55;102543;1332;37223;-73
2022/12/06 07:05:24;;;;;;;30.60;20.30;;;;;;;3.12;84.80;100497.76;102326;1338;172927;-74
2022/12/06 07:07:59;;;;;;;27.00;19.10;;;;;;;3.09;84.80;100498.63;102590;1332;37727;-73
2022/12/06 07:10:33;;;;;;;27.70;18.50;;;;;;;3.06;84.71;100497.10;102516;1336;37158;-73
2022/12/06 07:13:07;;;;;;;27.90;17.60;;;;;;;3.06;84.80;100494.34;102528;1332;37318;-73
2022/12/06 07:15:41;;;;;;;27.50;19.00;;;;;;;3.06;84.72;100493.48;102519;1332;37146;-75
2022/12/06 07:18:15;;;;;;;28.20;19.00;;;;;;;3.01;84.72;100486.45;102543;1332;38455;-73
2022/12/06 07:20:50;;;;;;;28.30;18.60;;;;;;;2.98;84.60;100482.66;102542;1336;38710;-74
2022/12/06 07:23:24;;;;;;;29.00;18.00;;;;;;;2.98;84.94;100483.01;102564;1333;36429;-75
2022/12/06 07:26:06;;;;;;;27.10;18.30;;;;;;;3.00;84.90;100479.72;102514;1332;37119;-74
2022/12/06 07:28:40;;;;;;;25.30;17.50;;;;;;;3.01;85.02;100481.10;102493;1336;37550;-75
2022/12/06 07:31:15;;;;;;;22.40;15.90;;;;;;;2.96;84.66;100483.02;102587;1334;37542;-74
2022/12/06 07:33:51;;;;;;;22.80;16.10;;;;;;;2.91;84.89;100482.70;102556;1333;37216;-74
2022/12/06 07:36:25;;;;;;;22.50;16.40;;;;;;;2.96;85.29;100481.48;102580;1333;37171;-74
2022/12/06 07:39:01;;;;;;;26.00;18.10;;;;;;;2.99;85.13;100482.83;102551;1336;37149;-74
2022/12/06 07:47:18;;;;;;;23.60;16.80;;;;;;;2.99;85.28;100466.80;102557;1336;37054;-74
2022/12/06 07:49:54;;;;;;;22.40;15.60;;;;;;;2.99;85.21;100461.63;102581;1336;37248;-74
2022/12/06 07:52:31;;;;;;;22.40;15.80;;;;;;;3.03;85.60;100458.17;102563;1333;37424;-75
2022/12/06 07:55:06;;;;;;;23.90;17.60;;;;;;;3.08;85.48;100457.27;102453;1337;37286;-74
2022/12/06 07:57:40;;;;;;;26.30;17.80;;;;;;;3.15;85.78;100458.95;102576;1336;37794;-73
2022/12/06 08:00:17;;;;;;;24.20;17.60;;;;;;;3.20;85.57;100461.68;102516;1336;37464;-73
2022/12/06 08:02:51;;;;;;;23.60;17.50;;;;;;;3.16;85.26;100459.46;102580;1336;37532;-75
2022/12/06 08:05:29;;;;;;;21.70;16.70;;;;;;;3.17;85.43;100459.11;102552;1332;37259;-73
2022/12/06 08:08:02;;;;;;;23.10;16.70;;;;;;;3.17;85.14;100461.17;102416;1338;37223;-74
2022/12/06 08:10:36;;;;;;;23.00;16.20;;;;;;;3.13;85.03;100462.08;102569;1336;37151;-73
2022/12/06 08:13:11;;;;;;;26.40;17.80;;;;;;;3.14;85.22;100464.64;102579;1336;38532;-74
2022/12/06 08:15:47;;;;;;;22.30;16.60;;;;;;;3.14;85.21;100465.86;102562;1336;37195;-74
2022/12/06 08:18:21;;;;;;;22.00;16.10;;;;;;;3.17;85.35;100463.43;102580;1336;37181;-73
2022/12/06 08:20:54;;;;;;;20.00;15.00;;;;;;;3.15;85.05;100463.43;102572;1336;37133;-76
2022/12/06 08:23:28;;;;;;;22.20;15.70;;;;;;;3.14;85.11;100462.58;102569;1336;36933;-74
2022/12/06 08:26:03;;;;;;;18.60;14.40;;;;;;;3.14;85.31;100464.11;102539;1332;36709;-75
2022/12/06 08:28:38;;;;;;;20.40;15.50;;;;;;;3.17;85.46;100456.17;102550;1336;37462;-73
2022/12/06 08:31:13;;;;;;;23.70;16.10;;;;;;;3.18;85.13;100453.07;102566;1334;37166;-73
2022/12/06 08:33:47;;;;;;;22.70;15.40;;;;;;;3.13;85.09;100453.95;102551;1336;37226;-73
2022/12/06 08:36:21;;;;;;;20.20;14.90;;;;;;;3.11;85.17;100462.42;102439;1339;37575;-73
2022/12/06 08:38:56;;;;;;;20.90;15.20;;;;;;;3.07;85.11;100463.30;101935;1336;905183;-76
2022/12/06 08:44:21;;;;;;;21.70;16.00;;;;;;;3.05;85.19;100459.01;102488;1337;40758;-73
2022/12/06 08:46:55;;;;;;;25.90;17.20;;;;;;;3.06;85.16;100461.41;102609;1336;37144;-73
2022/12/06 08:49:29;;;;;;;25.60;17.40;;;;;;;3.10;85.54;100452.27;102569;1336;38297;-72
2022/12/06 08:52:03;;;;;;;24.90;17.20;;;;;;;3.13;85.29;100454.30;102572;1333;37516;-73
2022/12/06 08:54:37;;;;;;;24.40;17.60;;;;;;;3.17;85.42;100454.46;102560;1333;37277;-75
2022/12/06 08:57:10;;;;;;;23.60;17.70;;;;;;;3.19;85.32;100456.50;102517;1332;37669;-73
2022/12/06 08:59:44;;;;;;;22.60;16.80;;;;;;;3.21;85.28;100457.71;102560;1334;37223;-75
2022/12/06 09:02:19;;;;;;;23.60;17.90;;;;;;;3.21;85.24;100458.05;102526;1332;37477;-74
2022/12/06 09:04:55;;;;;;;26.10;18.80;;;;;;;3.21;85.02;100452.89;102522;1332;38424;-74
2022/12/06 09:07:29;;;;;;;25.30;18.90;;;;;;;3.19;85.20;100442.36;102530;1336;37154;-77
2022/12/06 09:10:04;;;;;;;27.10;18.20;;;;;;;3.23;85.18;100435.96;102538;1336;37319;-75
2022/12/06 09:12:38;;;;;;;25.40;18.10;;;;;;;3.24;85.11;100432.00;102437;1334;38376;-75
2022/12/06 09:15:14;;;;;;;24.90;17.60;;;;;;;3.17;84.80;100429.12;102389;1339;36969;-75
2022/12/06 09:17:47;;;;;;;26.00;18.90;;;;;;;3.19;85.09;100422.73;102534;1334;37496;-74
2022/12/06 09:20:22;;;;;;;31.40;20.50;;;;;;;3.23;84.99;100427.52;102532;1336;36158;-76
2022/12/06 09:22:56;;;;;;;28.40;19.50;;;;;;;3.22;84.92;100429.09;102547;1336;37161;-74
2022/12/06 09:25:31;;;;;;;25.10;18.40;;;;;;;3.23;85.07;100429.77;102542;1332;37269;-76
2022/12/06 09:28:05;;;;;;;26.80;19.10;;;;;;;3.23;85.00;100427.52;102450;1339;37433;-73
2022/12/06 09:30:40;;;;;;;30.40;20.50;;;;;;;3.26;85.10;100424.92;102444;1333;174898;-74
2022/12/06 09:33:14;;;;;;;31.20;20.70;;;;;;;3.30;85.30;100426.45;102525;1336;37238;-76
2022/12/06 09:35:48;;;;;;;26.50;19.20;;;;;;;3.34;85.11;100421.05;102510;1336;37578;-74
2022/12/06 09:38:23;;;;;;;28.80;19.30;;;;;;;3.34;84.89;100416.40;102534;1336;37126;-75
2022/12/06 09:41:04;;;;;;;27.60;18.90;;;;;;;3.40;85.33;100414.63;102588;1334;37247;-74
2022/12/06 09:43:51;;;;;;;38.30;24.40;;;;;;;3.45;85.12;100408.55;102537;1333;37294;-73
2022/12/06 09:46:49;;;;;;;36.10;24.20;;;;;;;3.46;84.73;100400.96;102511;1336;37247;-75
2022/12/06 09:49:34;;;;;;;35.40;24.20;;;;;;;3.47;85.05;100394.58;102547;1333;36627;-75
2022/12/06 09:52:33;;;;;;;33.70;21.40;;;;;;;3.43;84.57;100395.14;102594;1336;38993;-75
2022/12/06 09:55:18;;;;;;;29.30;20.70;;;;;;;3.39;84.61;100395.50;102486;1336;36169;-73
2022/12/06 09:57:56;;;;;;;34.00;22.70;;;;;;;3.41;84.67;100390.32;102436;1339;36559;-73
2022/12/06 10:00:32;;;;;;;31.40;22.50;;;;;;;3.44;84.61;100388.04;102522;1336;38462;-75
2022/12/06 10:03:35;;;;;;;32.80;21.50;;;;;;;3.43;84.92;100383.23;102552;1332;37312;-75
2022/12/06 10:06:11;;;;;;;32.60;20.80;;;;;;;3.41;84.52;100379.80;102544;1336;37159;-75
2022/12/06 10:09:03;;;;;;;31.90;20.90;;;;;;;3.40;84.65;100374.98;102575;1336;37260;-76
2022/12/06 10:12:01;;;;;;;32.80;22.20;;;;;;;3.40;84.56;100364.63;102578;1332;37240;-74
2022/12/06 10:14:52;;;;;;;34.60;21.80;;;;;;;3.36;84.72;100356.39;102538;1334;37536;-75
2022/12/06 10:17:33;;;;;;;36.90;22.00;;;;;;;3.39;85.16;100349.98;102594;1336;38614;-73
2022/12/06 10:20:11;;;;;;;30.90;20.80;;;;;;;3.40;84.90;100349.45;102400;1336;267253;-75
2022/12/06 10:22:55;;;;;;;29.70;20.40;;;;;;;3.39;84.81;100345.33;102579;1332;37377;-74
2022/12/06 10:25:34;;;;;;;36.60;26.00;;;;;;;3.41;85.21;100335.65;102565;1336;37151;-75
2022/12/06 10:28:12;;;;;;;32.90;21.50;;;;;;;3.43;85.12;100328.89;102574;1336;37036;-74
2022/12/06 10:30:52;;;;;;;30.10;21.10;;;;;;;3.46;85.13;100321.98;102578;1332;36887;-75
2022/12/06 10:33:33;;;;;;;36.20;22.80;;;;;;;3.49;84.87;100322.11;102554;1336;36148;-75
2022/12/06 10:36:09;;;;;;;32.80;21.90;;;;;;;3.50;84.90;100322.13;102504;1333;37250;-75
2022/12/06 10:38:47;;;;;;;32.80;21.40;;;;;;;3.51;84.99;100321.59;102540;1332;37135;-74
2022/12/06 10:41:23;;;;;;;29.90;20.40;;;;;;;3.54;85.00;100317.05;102563;1333;37118;-76
2022/12/06 10:44:02;;;;;;;29.70;21.20;;;;;;;3.53;84.67;100317.61;102571;1333;37519;-73
2022/12/06 10:49:32;;;;;;;32.50;22.30;;;;;;;3.45;84.89;100308.71;102566;1333;38668;-74
2022/12/06 10:52:16;;;;;;;38.30;23.80;;;;;;;3.44;84.97;100306.14;102579;1336;37192;-73
2022/12/06 10:54:58;;;;;;;35.40;22.20;;;;;;;3.47;85.21;100301.63;102590;1336;36397;-73
2022/12/06 10:57:39;;;;;;;36.10;22.30;;;;;;;3.53;85.24;100296.55;102510;1337;37131;-76
2022/12/06 11:00:18;;;;;;;33.40;21.90;;;;;;;3.53;85.05;100290.69;102518;1336;37645;-76
2022/12/06 11:02:59;;;;;;;34.10;22.80;;;;;;;3.57;85.46;100285.64;102577;1336;38349;-74
2022/12/06 11:05:38;;;;;;;35.30;24.60;;;;;;;3.64;85.46;100285.23;102584;1336;37129;-74
2022/12/06 11:08:15;;;;;;;39.40;23.60;;;;;;;3.65;85.32;100282.80;102528;1333;37786;-73
2022/12/06 11:10:49;;;;;;;32.30;22.80;;;;;;;3.69;85.27;100277.92;102558;1336;37234;-75
2022/12/06 11:13:29;;;;;;;33.20;21.70;;;;;;;3.73;85.16;100277.36;102417;1337;37208;-73
2022/12/06 11:16:06;;;;;;;33.70;22.30;;;;;;;3.79;85.29;100278.34;102405;1338;36624;-76
2022/12/06 11:18:40;;;;;;;33.00;22.40;;;;;;;3.79;84.81;100271.08;102458;1336;36241;-74
2022/12/06 11:21:24;;;;;;;38.90;25.70;;;;;;;3.82;85.02;100270.53;102485;1336;37604;-75
2022/12/06 11:24:02;;;;;;;36.30;22.90;;;;;;;3.78;84.77;100270.23;102573;1336;37355;-74
2022/12/06 11:26:40;;;;;;;31.40;21.70;;;;;;;3.80;84.79;100267.62;102439;1339;36159;-74
2022/12/06 11:29:16;;;;;;;33.60;23.80;;;;;;;3.81;84.65;100267.45;102552;1332;36986;-75
2022/12/06 11:31:51;;;;;;;35.00;22.50;;;;;;;3.80;84.47;100264.17;102576;1336;37424;-74
2022/12/06 11:34:30;;;;;;;34.40;23.30;;;;;;;3.80;84.87;100261.41;102481;1337;36616;-74
2022/12/06 11:37:04;;;;;;;38.20;23.70;;;;;;;3.83;84.77;100264.65;102568;1336;36531;-72
2022/12/06 11:39:39;;;;;;;37.50;25.10;;;;;;;3.79;84.40;100263.48;102557;1332;38204;-71
2022/12/06 11:42:14;;;;;;;36.00;23.90;;;;;;;3.79;84.67;100257.96;102528;1332;37175;-73
2022/12/06 11:44:54;;;;;;;38.20;24.10;;;;;;;3.77;84.76;100259.38;102444;1336;172395;-75
2022/12/06 11:47:28;;;;;;;36.90;24.90;;;;;;;3.77;84.69;100260.75;102471;1336;37175;-75
2022/12/06 11:50:02;;;;;;;40.60;23.70;;;;;;;3.78;84.73;100256.25;102529;1333;37713;-75
2022/12/06 11:52:39;;;;;;;39.00;25.50;;;;;;;3.79;84.70;100252.27;102500;1336;37388;-76
2022/12/06 11:55:21;;;;;;;43.30;26.70;;;;;;;3.79;84.48;100249.00;102490;1336;36444;-73
2022/12/06 11:57:58;;;;;;;47.20;28.00;;;;;;;3.78;84.59;100249.52;102574;1336;37793;-75
2022/12/06 12:00:32;;;;;;;41.30;26.00;;;;;;;3.75;84.55;100250.77;102535;1336;37472;-74
2022/12/06 12:03:06;;;;;;;41.10;26.50;;;;;;;3.74;84.49;100248.54;102554;1333;37409;-73
2022/12/06 12:05:40;;;;;;;42.20;26.30;;;;;;;3.72;84.43;100246.84;102571;1332;36338;-74
2022/12/06 12:08:21;;;;;;;54.60;30.90;;;;;;;3.71;84.39;100243.40;102575;1336;37283;-75
2022/12/06 12:11:03;;;;;;;43.60;27.50;;;;;;;3.70;84.33;100238.07;102486;1336;37990;-74
2022/12/06 12:13:47;;;;;;;43.30;25.60;;;;;;;3.70;84.49;100230.98;102468;1333;37129;-73
2022/12/06 12:16:23;;;;;;;47.70;28.20;;;;;;;3.71;84.67;100233.39;102559;1332;37132;-73
2022/12/06 12:19:00;;;;;;;40.90;26.70;;;;;;;3.70;84.69;100230.48;102542;1333;37277;-74
2022/12/06 12:21:42;;;;;;;42.10;25.80;;;;;;;3.72;84.76;100230.96;102596;1333;37238;-72
2022/12/06 12:24:49;;;;;;;40.10;24.20;;;;;;;3.72;84.62;100226.13;102477;1336;188407;-73
2022/12/06 12:27:43;;;;;;;41.50;24.60;;;;;;;3.71;84.40;100225.80;102473;1336;174387;-74
2022/12/06 12:30:31;;;;;;;44.20;26.10;;;;;;;3.70;84.66;100221.34;102555;1336;37549;-76